Time;durP1;ratioP1;P1;durP2;ratioP2;P2;SDS_P1;SDS_P2;PMS_P1;PMS_P2;Temp;Humidity;BMP_temperature;BMP_pressure;BME280_temperature;BME280_humidity;BME280_pressure;Samples;Min_cycle;Max_cycle;Signal;HPM_P1;HPM_P2
2023/12/24 00:01:03;;;;;;;6.00;1.00;;;9.60;74.00;;;;;;5015398;28;20472;-76
2023/12/24 00:03:28;;;;;;;1.57;0.90;;;9.60;74.00;;;;;;5020618;28;20424;-76
2023/12/24 00:05:54;;;;;;;1.27;0.97;;;9.50;74.20;;;;;;5016826;28;20417;-77
2023/12/24 00:08:20;;;;;;;1.40;1.00;;;9.50;74.20;;;;;;5012484;28;20182;-76
2023/12/24 00:10:45;;;;;;;1.97;1.00;;;9.60;74.20;;;;;;5008685;28;20217;-76
2023/12/24 00:13:11;;;;;;;2.10;0.97;;;9.50;73.90;;;;;;5012244;28;20178;-75
2023/12/24 00:15:37;;;;;;;1.87;1.00;;;9.50;74.00;;;;;;5013202;28;20236;-76
2023/12/24 00:18:02;;;;;;;1.30;1.03;;;9.60;73.90;;;;;;5014378;28;20480;-76
2023/12/24 00:20:28;;;;;;;1.50;0.77;;;9.60;73.90;;;;;;5025447;28;20208;-75
2023/12/24 00:23:15;;;;;;;0.90;0.70;;;9.60;73.70;;;;;;5016456;28;20213;-76
2023/12/24 00:25:40;;;;;;;1.37;1.17;;;9.60;73.70;;;;;;5014988;28;20197;-76
2023/12/24 00:28:06;;;;;;;1.27;1.00;;;9.60;73.70;;;;;;5006249;28;20428;-75
2023/12/24 00:30:33;;;;;;;1.33;0.90;;;9.50;74.00;;;;;;5006435;28;20260;-76
2023/12/24 00:32:59;;;;;;;0.97;0.70;;;9.50;73.90;;;;;;5008528;28;20190;-75
2023/12/24 00:35:26;;;;;;;0.90;0.70;;;9.50;73.90;;;;;;5007635;28;20464;-75
2023/12/24 00:37:52;;;;;;;3.10;0.97;;;9.50;73.70;;;;;;5009635;28;20432;-76
2023/12/24 00:40:18;;;;;;;0.87;0.70;;;9.60;73.60;;;;;;5004121;28;20924;-76
2023/12/24 00:42:45;;;;;;;1.50;1.00;;;9.60;73.60;;;;;;5002937;28;20423;-76
2023/12/24 00:45:13;;;;;;;1.70;0.80;;;9.60;73.90;;;;;;5010959;28;20428;-76
2023/12/24 00:47:39;;;;;;;1.23;0.70;;;9.60;73.60;;;;;;5012597;28;20507;-76
2023/12/24 00:50:08;;;;;;;1.07;0.70;;;9.60;73.00;;;;;;5005111;28;20457;-75
2023/12/24 00:52:54;;;;;;;4.30;1.37;;;9.60;73.20;;;;;;5012181;28;20425;-74
2023/12/24 00:55:19;;;;;;;1.17;0.70;;;9.50;73.00;;;;;;5014799;28;20451;-75
2023/12/24 00:57:45;;;;;;;1.20;0.87;;;9.50;73.00;;;;;;5010010;28;20461;-75
2023/12/24 01:00:13;;;;;;;0.87;0.60;;;9.50;73.30;;;;;;5010909;28;20257;-76
2023/12/24 01:02:39;;;;;;;0.90;0.60;;;9.50;73.30;;;;;;5021595;28;20240;-76
2023/12/24 01:05:06;;;;;;;0.90;0.70;;;9.40;73.30;;;;;;5028487;28;20975;-76
2023/12/24 01:07:32;;;;;;;1.70;0.80;;;9.40;73.50;;;;;;5007541;28;20202;-76
2023/12/24 01:09:57;;;;;;;1.00;0.70;;;9.50;73.30;;;;;;5005436;28;20460;-76
2023/12/24 01:12:23;;;;;;;0.83;0.70;;;9.40;73.30;;;;;;5009187;28;20189;-75
2023/12/24 01:14:50;;;;;;;1.00;0.70;;;9.40;73.50;;;;;;5008626;28;20178;-76
2023/12/24 01:17:15;;;;;;;1.00;0.73;;;9.40;73.50;;;;;;5009185;28;20194;-76
2023/12/24 01:19:41;;;;;;;1.97;0.70;;;9.30;73.70;;;;;;5005093;28;20465;-76
2023/12/24 01:22:07;;;;;;;1.27;0.60;;;9.30;73.70;;;;;;5007499;28;20255;-76
2023/12/24 01:24:32;;;;;;;1.10;0.70;;;9.30;73.60;;;;;;5015285;28;20185;-75
2023/12/24 01:26:58;;;;;;;1.17;0.73;;;9.30;73.60;;;;;;5020608;28;20209;-76
2023/12/24 01:29:25;;;;;;;1.00;0.70;;;9.30;73.50;;;;;;5021162;28;20221;-74
2023/12/24 01:31:50;;;;;;;0.90;0.63;;;9.30;73.60;;;;;;5016826;28;20194;-76
2023/12/24 01:34:16;;;;;;;1.13;0.70;;;9.30;73.60;;;;;;5016468;28;20482;-76
2023/12/24 01:36:43;;;;;;;1.23;0.80;;;9.40;73.30;;;;;;5010446;28;21161;-76
2023/12/24 01:39:10;;;;;;;0.80;0.70;;;9.40;73.20;;;;;;5010829;28;20479;-74
2023/12/24 01:41:35;;;;;;;0.80;0.70;;;9.50;73.30;;;;;;5009876;28;20520;-76
2023/12/24 01:44:02;;;;;;;1.00;0.80;;;9.50;73.00;;;;;;5012438;28;20480;-76
2023/12/24 01:46:28;;;;;;;3.17;0.90;;;9.50;72.90;;;;;;5019593;28;20636;-75
2023/12/24 01:48:56;;;;;;;1.30;0.67;;;9.50;72.90;;;;;;5018901;28;20464;-75
2023/12/24 01:51:23;;;;;;;1.03;0.70;;;9.50;72.90;;;;;;5009458;28;21024;-76
2023/12/24 01:53:50;;;;;;;1.00;0.80;;;9.50;72.70;;;;;;5020393;28;20436;-77
2023/12/24 01:56:21;;;;;;;1.30;0.80;;;9.50;72.90;;;;;;5024056;28;20421;-75
2023/12/24 01:58:47;;;;;;;1.37;0.97;;;9.50;72.40;;;;;;5023734;28;20468;-76
2023/12/24 02:01:12;;;;;;;0.70;0.63;;;9.50;72.30;;;;;;5001056;28;20516;-76
2023/12/24 02:03:38;;;;;;;1.47;0.90;;;9.60;72.00;;;;;;5010587;28;20243;-75
2023/12/24 02:06:05;;;;;;;1.43;0.73;;;9.50;72.00;;;;;;5008879;28;20684;-76
2023/12/24 02:08:31;;;;;;;1.53;1.10;;;9.50;72.10;;;;;;5004727;28;20182;-75
2023/12/24 02:10:58;;;;;;;2.17;0.90;;;9.50;72.00;;;;;;5009362;28;20472;-76
2023/12/24 02:13:24;;;;;;;0.97;0.70;;;9.60;72.00;;;;;;5020941;28;20599;-76
2023/12/24 02:15:52;;;;;;;1.10;0.80;;;9.60;71.80;;;;;;5020648;28;20445;-76
2023/12/24 02:18:19;;;;;;;0.93;0.73;;;9.60;71.70;;;;;;5014317;28;20780;-76
2023/12/24 02:20:46;;;;;;;2.77;1.10;;;9.60;71.60;;;;;;5019492;28;20468;-76
2023/12/24 02:23:12;;;;;;;1.30;0.90;;;9.60;71.70;;;;;;5034419;28;20463;-77
2023/12/24 02:25:38;;;;;;;1.53;0.80;;;9.60;71.70;;;;;;5039469;28;20453;-75
2023/12/24 02:28:17;;;;;;;1.20;0.90;;;9.60;71.70;;;;;;5034907;28;20193;-76
2023/12/24 02:30:50;;;;;;;1.10;0.90;;;9.50;72.00;;;;;;5030796;28;20220;-76
2023/12/24 02:33:17;;;;;;;1.37;0.90;;;9.60;72.00;;;;;;5034750;28;20429;-75
2023/12/24 02:35:43;;;;;;;1.50;0.97;;;9.70;71.70;;;;;;5021491;28;20547;-74
2023/12/24 02:38:09;;;;;;;1.80;0.90;;;9.60;71.80;;;;;;5008110;28;20483;-75
2023/12/24 02:40:35;;;;;;;1.40;0.90;;;9.50;72.10;;;;;;5006868;28;20551;-75
2023/12/24 02:43:00;;;;;;;1.27;0.90;;;9.50;72.10;;;;;;5010446;28;20189;-75
2023/12/24 02:45:26;;;;;;;1.53;1.00;;;9.50;72.40;;;;;;5011946;28;20181;-75
2023/12/24 02:47:51;;;;;;;1.30;0.90;;;9.50;72.30;;;;;;5016430;28;20559;-75
2023/12/24 02:50:18;;;;;;;0.93;0.80;;;9.50;72.30;;;;;;5006029;28;20205;-75
2023/12/24 02:52:44;;;;;;;1.07;0.80;;;9.50;72.40;;;;;;5006113;28;20718;-75
2023/12/24 02:55:10;;;;;;;1.57;0.90;;;9.50;72.60;;;;;;5025683;28;20428;-75
2023/12/24 02:57:36;;;;;;;1.20;1.00;;;9.40;73.00;;;;;;5024002;28;20428;-76
2023/12/24 03:00:02;;;;;;;2.90;1.03;;;9.30;73.30;;;;;;5016183;28;21102;-74
2023/12/24 03:02:27;;;;;;;1.50;1.00;;;9.40;73.30;;;;;;5016605;28;20264;-76
2023/12/24 03:04:53;;;;;;;1.00;0.80;;;9.40;73.50;;;;;;5011172;28;20425;-76
2023/12/24 03:07:18;;;;;;;2.13;0.80;;;9.40;73.20;;;;;;5018491;28;20189;-74
2023/12/24 03:09:44;;;;;;;1.40;0.83;;;9.40;73.20;;;;;;5013500;28;20237;-74
2023/12/24 03:12:10;;;;;;;2.20;1.00;;;9.50;73.50;;;;;;5035137;28;20242;-74
2023/12/24 03:14:35;;;;;;;1.20;0.80;;;9.50;73.20;;;;;;5017338;28;20193;-75
2023/12/24 03:17:01;;;;;;;1.77;1.10;;;9.50;73.20;;;;;;5011596;28;20182;-75
2023/12/24 03:19:26;;;;;;;1.10;0.87;;;9.40;73.20;;;;;;5009221;28;20213;-76
2023/12/24 03:21:52;;;;;;;0.80;0.70;;;9.50;73.30;;;;;;5009031;28;20240;-75
2023/12/24 03:24:17;;;;;;;1.50;0.90;;;9.40;73.30;;;;;;5014625;28;20194;-75
2023/12/24 03:26:43;;;;;;;1.47;0.93;;;9.40;73.30;;;;;;5010205;28;20335;-75
2023/12/24 03:29:12;;;;;;;1.10;0.80;;;9.50;73.50;;;;;;5010905;28;20204;-75
2023/12/24 03:31:37;;;;;;;1.30;0.90;;;9.50;73.50;;;;;;5008394;28;20221;-75
2023/12/24 03:34:04;;;;;;;1.10;0.80;;;9.50;73.50;;;;;;5011819;28;20437;-75
2023/12/24 03:36:30;;;;;;;1.23;0.87;;;9.50;73.30;;;;;;5025065;28;20500;-75
2023/12/24 03:38:55;;;;;;;1.33;0.77;;;9.50;73.30;;;;;;5034407;28;20615;-74
2023/12/24 03:41:21;;;;;;;1.13;0.93;;;9.50;73.30;;;;;;5025405;28;20209;-75
2023/12/24 03:43:47;;;;;;;1.67;0.90;;;9.50;73.20;;;;;;5013303;28;20232;-74
2023/12/24 03:46:16;;;;;;;1.20;0.80;;;9.50;73.30;;;;;;5006887;28;20248;-76
2023/12/24 03:48:42;;;;;;;1.40;0.90;;;9.50;73.20;;;;;;5012935;28;20186;-76
2023/12/24 03:51:07;;;;;;;2.27;0.80;;;9.50;73.20;;;;;;5008470;28;20471;-75
2023/12/24 03:53:33;;;;;;;1.17;0.80;;;9.50;73.20;;;;;;5012781;28;20186;-76
2023/12/24 03:55:58;;;;;;;3.93;1.00;;;9.50;73.50;;;;;;5011737;28;20272;-75
2023/12/24 03:58:25;;;;;;;1.90;0.90;;;9.50;73.60;;;;;;5012591;28;20217;-76
2023/12/24 04:00:50;;;;;;;1.47;1.30;;;9.50;73.30;;;;;;5007470;28;20252;-76
2023/12/24 04:03:18;;;;;;;1.10;0.90;;;9.50;73.20;;;;;;5014998;28;20532;-76
2023/12/24 04:05:45;;;;;;;1.27;0.90;;;9.50;73.30;;;;;;5010395;28;20640;-75
2023/12/24 04:08:11;;;;;;;3.70;1.00;;;9.50;73.30;;;;;;5012454;28;20945;-75
2023/12/24 04:10:39;;;;;;;1.57;0.87;;;9.50;73.50;;;;;;5010747;28;20468;-76
2023/12/24 04:13:08;;;;;;;1.37;1.10;;;9.40;73.50;;;;;;5018329;28;20178;-76
2023/12/24 04:15:34;;;;;;;1.37;1.03;;;9.40;73.50;;;;;;5025087;28;20425;-73
2023/12/24 04:18:02;;;;;;;1.57;0.93;;;9.40;73.50;;;;;;5015301;28;20443;-75
2023/12/24 04:20:28;;;;;;;1.20;0.93;;;9.40;73.50;;;;;;5010616;28;20264;-76
2023/12/24 04:22:54;;;;;;;1.70;0.90;;;9.40;73.30;;;;;;5013274;28;20425;-75
2023/12/24 04:25:19;;;;;;;1.00;0.87;;;9.50;73.20;;;;;;5014170;28;20690;-75
2023/12/24 04:27:45;;;;;;;1.10;0.90;;;9.40;73.20;;;;;;5013184;28;20256;-76
2023/12/24 04:30:11;;;;;;;2.03;1.10;;;9.50;73.00;;;;;;5009807;28;20206;-75
2023/12/24 04:32:37;;;;;;;1.53;1.13;;;9.50;72.90;;;;;;5015373;28;20528;-76
2023/12/24 04:35:04;;;;;;;1.47;1.10;;;9.50;73.00;;;;;;5016868;28;20460;-74
2023/12/24 04:37:29;;;;;;;1.37;1.00;;;9.40;72.90;;;;;;5011494;28;20190;-75
2023/12/24 04:39:55;;;;;;;1.80;1.00;;;9.50;73.00;;;;;;5009222;28;20497;-76
2023/12/24 04:42:21;;;;;;;2.77;1.10;;;9.50;72.90;;;;;;5011103;28;20972;-76
2023/12/24 04:44:46;;;;;;;2.63;1.33;;;9.50;72.90;;;;;;5011144;28;20231;-76
2023/12/24 04:47:12;;;;;;;1.57;1.13;;;9.50;73.00;;;;;;5008694;28;20181;-75
2023/12/24 04:49:38;;;;;;;1.47;0.90;;;9.50;73.20;;;;;;5010402;28;20210;-75
2023/12/24 04:52:03;;;;;;;2.90;1.30;;;9.50;73.30;;;;;;5008420;28;20182;-75
2023/12/24 04:54:29;;;;;;;2.00;0.97;;;9.40;73.30;;;;;;5013392;28;20186;-74
2023/12/24 04:56:55;;;;;;;2.17;1.23;;;9.40;73.60;;;;;;5012118;28;20459;-74
2023/12/24 04:59:21;;;;;;;1.47;1.07;;;9.40;73.70;;;;;;5016387;28;20495;-76
2023/12/24 05:01:49;;;;;;;2.50;1.13;;;9.30;74.00;;;;;;5011206;28;20182;-75
2023/12/24 05:04:14;;;;;;;1.77;1.17;;;9.40;74.20;;;;;;5017327;28;20853;-76
2023/12/24 05:06:40;;;;;;;0.97;0.90;;;9.40;74.00;;;;;;5016407;28;20421;-75
2023/12/24 05:09:05;;;;;;;2.10;1.00;;;9.30;74.00;;;;;;5019952;28;20686;-76
2023/12/24 05:11:31;;;;;;;1.17;0.67;;;9.30;74.20;;;;;;5016611;28;20246;-74
2023/12/24 05:13:57;;;;;;;1.20;1.00;;;9.30;74.20;;;;;;5016444;28;20205;-75
2023/12/24 05:16:22;;;;;;;2.80;1.03;;;9.20;74.30;;;;;;5024436;28;20198;-76
2023/12/24 05:18:49;;;;;;;2.10;1.60;;;9.20;74.30;;;;;;5028369;28;20190;-74
2023/12/24 05:21:15;;;;;;;3.10;1.07;;;9.20;74.50;;;;;;5021435;28;20697;-75
2023/12/24 05:23:41;;;;;;;1.50;0.90;;;9.20;74.60;;;;;;5012557;28;20535;-74
2023/12/24 05:26:07;;;;;;;2.70;1.00;;;9.20;74.60;;;;;;5012858;28;20496;-76
2023/12/24 05:28:32;;;;;;;1.50;0.80;;;9.20;74.80;;;;;;5016227;28;20181;-76
2023/12/24 05:30:59;;;;;;;1.00;0.80;;;9.20;74.80;;;;;;5010888;28;20289;-77
2023/12/24 05:33:24;;;;;;;2.20;1.10;;;9.20;74.80;;;;;;5011466;28;20420;-76
2023/12/24 05:35:50;;;;;;;1.67;0.90;;;9.20;74.90;;;;;;5011252;28;20421;-75
2023/12/24 05:38:15;;;;;;;1.47;1.07;;;9.20;74.80;;;;;;5010706;28;20256;-75
2023/12/24 05:40:41;;;;;;;1.67;1.00;;;9.20;74.80;;;;;;5015143;28;20722;-75
2023/12/24 05:43:08;;;;;;;1.63;0.90;;;9.20;74.80;;;;;;5029661;28;20205;-76
2023/12/24 05:45:35;;;;;;;1.50;0.90;;;9.20;74.80;;;;;;5030559;28;20245;-77
2023/12/24 05:48:01;;;;;;;1.70;1.20;;;9.20;74.90;;;;;;5026862;28;20424;-76
2023/12/24 05:50:27;;;;;;;1.27;0.77;;;9.20;74.90;;;;;;5008377;28;20510;-76
2023/12/24 05:52:52;;;;;;;0.90;0.70;;;9.20;74.90;;;;;;5010985;28;20182;-76
2023/12/24 05:55:18;;;;;;;1.20;1.00;;;9.20;74.90;;;;;;5013569;28;20425;-76
2023/12/24 05:57:43;;;;;;;3.57;0.90;;;9.20;74.80;;;;;;5014121;28;20193;-76
2023/12/24 06:00:10;;;;;;;1.30;0.87;;;9.30;74.90;;;;;;5028195;28;20401;-76
2023/12/24 06:02:35;;;;;;;1.57;0.90;;;9.30;74.90;;;;;;5032186;28;20186;-75
2023/12/24 06:05:01;;;;;;;1.50;1.10;;;9.20;74.90;;;;;;5036631;28;20473;-76
2023/12/24 06:07:27;;;;;;;3.43;0.90;;;9.20;75.10;;;;;;5035025;28;20197;-75
2023/12/24 06:09:53;;;;;;;1.87;0.80;;;9.20;75.20;;;;;;5035044;28;20491;-77
2023/12/24 06:12:18;;;;;;;1.00;0.80;;;9.20;75.40;;;;;;5031298;28;20170;-76
2023/12/24 06:14:44;;;;;;;1.50;0.77;;;9.20;75.40;;;;;;5035589;28;20182;-74
2023/12/24 06:17:09;;;;;;;0.93;0.53;;;9.20;75.50;;;;;;5035283;28;20186;-75
2023/12/24 06:19:35;;;;;;;2.60;0.97;;;9.20;75.70;;;;;;5029895;28;20217;-75
2023/12/24 06:22:01;;;;;;;0.80;0.70;;;9.20;75.80;;;;;;5013197;28;20646;-76
2023/12/24 06:24:27;;;;;;;1.20;0.80;;;9.20;75.90;;;;;;5014818;28;20200;-76
2023/12/24 06:26:53;;;;;;;0.80;0.60;;;9.20;76.10;;;;;;5013725;28;20491;-74
2023/12/24 06:29:18;;;;;;;1.17;0.83;;;9.20;76.20;;;;;;5011470;28;20906;-74
2023/12/24 06:31:44;;;;;;;1.40;0.87;;;9.20;76.20;;;;;;5009103;28;20252;-75
2023/12/24 06:34:11;;;;;;;1.30;1.00;;;9.20;76.50;;;;;;5012782;28;20273;-73
2023/12/24 06:36:37;;;;;;;0.90;0.70;;;9.10;76.50;;;;;;5011582;28;20173;-75
2023/12/24 06:39:02;;;;;;;0.90;0.70;;;9.10;76.70;;;;;;5011283;28;20471;-73
2023/12/24 06:41:28;;;;;;;1.40;0.80;;;9.10;76.80;;;;;;5007896;28;20264;-74
2023/12/24 06:43:53;;;;;;;1.07;0.83;;;9.20;76.70;;;;;;5011478;28;20184;-76
2023/12/24 06:46:20;;;;;;;1.20;0.80;;;9.20;76.70;;;;;;5011006;28;20546;-74
2023/12/24 06:48:46;;;;;;;1.07;0.70;;;9.20;76.70;;;;;;5004461;28;20276;-75
2023/12/24 06:51:12;;;;;;;1.00;0.80;;;9.20;76.70;;;;;;5007129;28;20942;-75
2023/12/24 06:53:37;;;;;;;1.23;0.87;;;9.30;76.70;;;;;;5011183;28;20454;-75
2023/12/24 06:56:04;;;;;;;1.97;0.90;;;9.30;76.40;;;;;;5011577;28;20197;-75
2023/12/24 06:58:29;;;;;;;1.03;0.80;;;9.30;76.40;;;;;;5011942;28;20210;-76
2023/12/24 07:00:55;;;;;;;0.80;0.70;;;9.30;76.20;;;;;;5006156;28;20467;-76
2023/12/24 07:03:21;;;;;;;0.80;0.80;;;9.30;76.20;;;;;;5011317;28;20178;-76
2023/12/24 07:05:46;;;;;;;2.30;0.70;;;9.40;76.20;;;;;;5011895;28;20583;-74
2023/12/24 07:08:12;;;;;;;1.67;0.80;;;9.40;76.10;;;;;;5013806;28;20182;-76
2023/12/24 07:10:38;;;;;;;13.13;1.17;;;9.40;75.90;;;;;;5016859;28;20205;-74
2023/12/24 07:13:04;;;;;;;1.10;0.90;;;9.40;75.90;;;;;;5031877;28;20190;-74
2023/12/24 07:15:37;;;;;;;2.20;0.90;;;9.50;75.80;;;;;;5026829;28;20416;-74
2023/12/24 07:18:02;;;;;;;1.30;0.70;;;9.60;75.70;;;;;;5016551;28;20670;-75
2023/12/24 07:20:28;;;;;;;1.87;1.07;;;9.60;75.40;;;;;;5009740;28;20495;-74
2023/12/24 07:22:53;;;;;;;1.53;0.90;;;9.60;75.50;;;;;;5011479;28;20268;-75
2023/12/24 07:25:19;;;;;;;0.90;0.70;;;9.60;75.50;;;;;;5021912;28;20185;-75
2023/12/24 07:27:44;;;;;;;0.70;0.67;;;9.60;75.50;;;;;;5018242;28;20205;-75
2023/12/24 07:30:11;;;;;;;0.80;0.70;;;9.60;75.50;;;;;;5018340;28;20226;-75
2023/12/24 07:32:41;;;;;;;1.03;0.90;;;9.70;75.50;;;;;;5017126;28;20204;-74
2023/12/24 07:35:08;;;;;;;1.27;0.90;;;9.70;75.70;;;;;;5015956;28;20428;-74
2023/12/24 07:37:33;;;;;;;1.10;0.97;;;9.60;76.40;;;;;;5013869;28;21153;-74
2023/12/24 07:39:59;;;;;;;0.97;0.70;;;9.70;76.80;;;;;;5009742;28;20480;-75
2023/12/24 07:42:25;;;;;;;1.47;0.80;;;9.60;76.40;;;;;;5018801;28;20669;-76
2023/12/24 07:44:51;;;;;;;1.03;0.77;;;9.60;76.50;;;;;;5021754;28;20190;-75
2023/12/24 07:47:16;;;;;;;1.53;1.00;;;9.60;76.70;;;;;;5017219;28;20194;-75
2023/12/24 07:49:42;;;;;;;0.90;0.70;;;9.70;76.70;;;;;;5027171;28;20437;-75
2023/12/24 07:52:08;;;;;;;1.20;0.80;;;9.70;76.50;;;;;;5029270;28;20182;-75
2023/12/24 07:54:34;;;;;;;1.03;0.80;;;9.60;77.00;;;;;;5021065;28;20433;-77
2023/12/24 07:56:59;;;;;;;1.33;0.90;;;9.60;77.40;;;;;;5019696;28;20174;-76
2023/12/24 07:59:25;;;;;;;1.77;0.80;;;9.60;77.60;;;;;;5012089;28;20213;-73
2023/12/24 08:01:50;;;;;;;0.93;0.70;;;9.60;77.40;;;;;;5014190;28;20186;-74
2023/12/24 08:04:16;;;;;;;0.90;0.80;;;9.60;77.60;;;;;;5016091;28;20205;-75
2023/12/24 08:06:42;;;;;;;1.83;0.77;;;9.60;77.40;;;;;;5015787;28;20186;-75
2023/12/24 08:09:08;;;;;;;0.90;0.70;;;9.70;77.30;;;;;;5009950;28;20197;-75
2023/12/24 08:11:33;;;;;;;0.70;0.60;;;9.70;77.00;;;;;;5013459;28;20202;-74
2023/12/24 08:13:59;;;;;;;1.57;0.90;;;9.70;76.70;;;;;;5016243;28;20440;-75
2023/12/24 08:16:25;;;;;;;1.53;0.80;;;9.80;76.70;;;;;;5017908;28;20197;-76
2023/12/24 08:18:50;;;;;;;0.80;0.60;;;9.80;76.50;;;;;;5024481;28;20260;-75
2023/12/24 08:21:16;;;;;;;0.80;0.60;;;9.80;76.40;;;;;;5010329;28;20201;-76
2023/12/24 08:23:41;;;;;;;1.07;0.70;;;9.80;76.20;;;;;;5012101;28;20228;-76
2023/12/24 08:26:07;;;;;;;1.17;0.67;;;9.80;76.40;;;;;;5017644;28;20602;-76
2023/12/24 08:28:32;;;;;;;0.80;0.60;;;9.80;76.40;;;;;;5007529;28;20185;-74
2023/12/24 08:31:00;;;;;;;1.20;0.90;;;9.80;76.20;;;;;;5007662;28;20598;-75
2023/12/24 08:33:26;;;;;;;1.07;0.90;;;9.90;76.20;;;;;;5021125;28;20193;-75
2023/12/24 08:35:51;;;;;;;1.10;0.83;;;9.90;76.10;;;;;;5019346;28;20483;-75
2023/12/24 08:38:17;;;;;;;1.90;0.90;;;9.90;76.10;;;;;;5018112;28;20337;-77
2023/12/24 08:40:43;;;;;;;1.00;0.63;;;9.90;76.10;;;;;;5024266;28;20313;-77
2023/12/24 08:43:09;;;;;;;0.73;0.50;;;9.90;76.10;;;;;;5021239;28;20174;-76
2023/12/24 08:45:34;;;;;;;1.60;0.70;;;9.90;76.10;;;;;;5011105;28;20408;-75
2023/12/24 08:48:00;;;;;;;1.30;0.60;;;9.90;76.10;;;;;;5009879;28;20177;-76
2023/12/24 08:50:25;;;;;;;1.00;0.60;;;10.00;76.10;;;;;;5007661;28;20242;-75
2023/12/24 08:52:51;;;;;;;0.70;0.50;;;10.00;76.20;;;;;;5013083;28;20186;-76
2023/12/24 08:55:18;;;;;;;0.70;0.50;;;10.00;76.20;;;;;;5013400;28;20265;-76
2023/12/24 08:57:43;;;;;;;1.53;0.70;;;10.00;76.10;;;;;;5012730;28;20186;-76
2023/12/24 09:00:12;;;;;;;0.90;0.63;;;10.10;75.90;;;;;;5009737;28;20496;-76
2023/12/24 09:02:39;;;;;;;1.10;0.63;;;10.10;75.90;;;;;;5012788;28;20563;-75
2023/12/24 09:05:07;;;;;;;0.80;0.60;;;10.10;75.90;;;;;;5020486;28;20464;-77
2023/12/24 09:07:34;;;;;;;0.97;0.70;;;10.20;75.90;;;;;;5016697;28;20429;-76
2023/12/24 09:10:00;;;;;;;1.03;0.63;;;10.20;75.90;;;;;;5011960;28;20500;-76
2023/12/24 09:12:25;;;;;;;0.70;0.53;;;10.20;76.10;;;;;;5013717;28;20425;-75
2023/12/24 09:14:51;;;;;;;0.93;0.70;;;10.20;76.70;;;;;;5013654;28;20205;-76
2023/12/24 09:17:17;;;;;;;0.80;0.60;;;10.10;77.40;;;;;;5013822;28;20178;-76
2023/12/24 09:19:42;;;;;;;0.73;0.57;;;10.10;78.30;;;;;;5013938;28;20716;-75
2023/12/24 09:22:08;;;;;;;0.90;0.60;;;10.00;79.00;;;;;;5015046;28;20248;-74
2023/12/24 09:24:34;;;;;;;0.70;0.50;;;9.90;79.70;;;;;;5016698;28;20233;-74
2023/12/24 09:27:00;;;;;;;0.80;0.50;;;9.80;80.80;;;;;;5010669;28;20186;-74
2023/12/24 09:29:26;;;;;;;1.50;0.63;;;9.70;81.70;;;;;;5010190;28;20221;-76
2023/12/24 09:31:52;;;;;;;0.87;0.70;;;9.60;82.10;;;;;;5008277;28;20464;-76
2023/12/24 09:34:18;;;;;;;1.10;0.83;;;9.60;82.50;;;;;;5015998;28;20190;-76
2023/12/24 09:36:44;;;;;;;1.23;0.70;;;9.60;82.80;;;;;;5021135;28;20264;-75
2023/12/24 09:39:09;;;;;;;1.50;0.70;;;9.50;83.10;;;;;;5020546;28;20476;-73
2023/12/24 09:41:37;;;;;;;1.70;0.93;;;9.50;82.70;;;;;;5015297;28;20694;-75
2023/12/24 09:44:03;;;;;;;1.17;0.80;;;9.50;82.70;;;;;;5015584;28;20170;-74
2023/12/24 09:46:29;;;;;;;3.33;0.70;;;9.50;82.80;;;;;;5011417;28;20443;-74
2023/12/24 09:48:54;;;;;;;1.20;0.60;;;9.60;82.80;;;;;;5012454;28;20417;-74
2023/12/24 09:51:20;;;;;;;1.10;0.77;;;9.60;82.50;;;;;;5005607;28;20374;-72
2023/12/24 09:53:48;;;;;;;0.83;0.63;;;9.50;83.40;;;;;;5013344;28;20181;-73
2023/12/24 09:56:13;;;;;;;1.37;0.80;;;9.40;83.60;;;;;;5011922;28;20413;-73
2023/12/24 09:58:40;;;;;;;1.37;1.00;;;9.40;83.60;;;;;;5016133;28;20789;-74
2023/12/24 10:01:08;;;;;;;1.07;0.67;;;9.40;83.80;;;;;;5015836;28;20205;-73
2023/12/24 10:03:35;;;;;;;2.57;0.73;;;9.30;84.40;;;;;;5010099;28;20425;-72
2023/12/24 10:06:07;;;;;;;0.93;0.70;;;9.30;84.30;;;;;;5015531;28;20440;-74
2023/12/24 10:08:33;;;;;;;1.20;1.00;;;9.30;84.90;;;;;;5011031;28;20483;-74
2023/12/24 10:11:13;;;;;;;1.20;0.80;;;9.40;84.60;;;;;;5003041;28;21092;-74
2023/12/24 10:13:39;;;;;;;4.67;0.90;;;9.40;84.40;;;;;;5005139;28;20471;-74
2023/12/24 10:16:05;;;;;;;0.90;0.70;;;9.50;83.10;;;;;;5007109;28;20779;-72
2023/12/24 10:18:31;;;;;;;1.00;0.77;;;9.60;83.10;;;;;;5009110;28;20579;-73
2023/12/24 10:21:06;;;;;;;0.80;0.70;;;9.70;82.70;;;;;;5003604;28;20996;-74
2023/12/24 10:23:32;;;;;;;0.80;0.80;;;9.80;81.40;;;;;;5011640;28;20464;-73
2023/12/24 10:26:05;;;;;;;0.80;0.70;;;9.90;81.80;;;;;;5018316;28;20532;-74
2023/12/24 10:28:32;;;;;;;0.90;0.77;;;9.90;81.40;;;;;;5010708;28;20483;-74
2023/12/24 10:31:08;;;;;;;1.30;0.80;;;9.90;80.80;;;;;;5015570;28;20561;-73
2023/12/24 10:33:38;;;;;;;1.20;0.70;;;10.00;80.30;;;;;;5016823;28;20417;-74
2023/12/24 10:36:05;;;;;;;0.97;0.70;;;10.00;79.70;;;;;;5008757;28;20425;-72
2023/12/24 10:38:31;;;;;;;0.70;0.50;;;10.10;79.70;;;;;;5007776;28;20495;-74
2023/12/24 10:40:57;;;;;;;0.80;0.70;;;10.10;79.50;;;;;;5007303;28;20469;-75
2023/12/24 10:43:23;;;;;;;1.43;0.90;;;10.10;79.00;;;;;;5007814;28;20819;-73
2023/12/24 10:45:49;;;;;;;1.20;0.80;;;10.20;78.60;;;;;;5016559;28;21027;-76
2023/12/24 10:48:14;;;;;;;1.70;0.80;;;10.20;78.70;;;;;;5016914;28;20499;-76
2023/12/24 10:50:40;;;;;;;0.70;0.60;;;10.30;78.10;;;;;;5011685;28;20548;-75
2023/12/24 10:53:06;;;;;;;1.33;0.70;;;10.30;78.00;;;;;;5025015;28;20186;-74
2023/12/24 10:55:34;;;;;;;1.13;0.60;;;10.30;77.80;;;;;;5023895;28;20425;-76
2023/12/24 10:58:33;;;;;;;1.83;0.87;;;10.40;77.40;;;;;;5021621;28;20186;-75
2023/12/24 11:01:07;;;;;;;1.20;0.60;;;10.40;77.00;;;;;;5003678;28;20478;-75
2023/12/24 11:03:53;;;;;;;0.90;0.70;;;10.40;77.00;;;;;;5013243;28;20428;-74
2023/12/24 11:06:53;;;;;;;1.00;0.60;;;10.40;76.80;;;;;;5012235;28;20800;-74
2023/12/24 11:09:19;;;;;;;0.90;0.70;;;10.50;76.70;;;;;;4931989;29;20821;-75
2023/12/24 11:11:55;;;;;;;1.00;0.70;;;10.50;76.80;;;;;;4930811;29;20672;-75
2023/12/24 11:14:47;;;;;;;1.00;0.80;;;10.60;76.50;;;;;;4932070;29;20184;-73
2023/12/24 11:17:36;;;;;;;2.20;0.80;;;10.60;76.50;;;;;;4937016;29;20440;-73
2023/12/24 11:20:26;;;;;;;0.90;0.67;;;10.60;76.50;;;;;;4928677;29;21382;-73
2023/12/24 11:23:06;;;;;;;1.20;0.70;;;10.60;76.80;;;;;;4916320;29;20984;-75
2023/12/24 11:25:43;;;;;;;0.90;0.63;;;10.60;77.10;;;;;;4932167;29;20428;-74
2023/12/24 11:28:23;;;;;;;0.70;0.50;;;10.60;76.50;;;;;;4932880;29;20424;-75
2023/12/24 11:30:51;;;;;;;0.97;0.70;;;10.70;76.40;;;;;;4930218;29;20503;-75
2023/12/24 11:33:29;;;;;;;1.07;0.67;;;10.70;76.20;;;;;;4934592;29;20912;-75
2023/12/24 11:36:02;;;;;;;1.03;0.70;;;10.80;76.10;;;;;;4933687;29;20431;-75
2023/12/24 11:38:33;;;;;;;0.87;0.50;;;10.80;75.80;;;;;;4933940;29;20492;-73
2023/12/24 11:41:20;;;;;;;2.30;0.90;;;10.80;75.40;;;;;;4933611;29;20559;-74
2023/12/24 11:43:59;;;;;;;1.30;0.80;;;10.80;75.80;;;;;;4993087;28;20416;-75
2023/12/24 11:46:26;;;;;;;1.07;0.77;;;10.80;75.70;;;;;;5013313;28;20440;-74
2023/12/24 11:49:00;;;;;;;1.80;0.50;;;10.90;75.80;;;;;;5025918;28;20448;-73
2023/12/24 11:51:26;;;;;;;0.80;0.60;;;10.90;75.40;;;;;;5018516;28;20467;-75
2023/12/24 11:54:03;;;;;;;0.87;0.70;;;10.90;75.80;;;;;;5022437;28;20436;-74
2023/12/24 11:56:30;;;;;;;0.80;0.50;;;11.00;75.50;;;;;;5024019;28;20878;-74
2023/12/24 11:58:55;;;;;;;1.00;0.73;;;11.00;75.10;;;;;;5017413;28;20805;-73
2023/12/24 12:01:26;;;;;;;1.47;0.90;;;11.00;75.20;;;;;;5017779;28;20491;-75
2023/12/24 12:04:00;;;;;;;0.80;0.60;;;11.00;75.20;;;;;;5024982;28;20653;-74
2023/12/24 12:06:27;;;;;;;0.60;0.40;;;11.00;75.20;;;;;;5015783;28;20435;-73
2023/12/24 12:08:53;;;;;;;0.80;0.60;;;11.00;74.90;;;;;;5011791;28;20503;-75
2023/12/24 12:11:19;;;;;;;2.00;0.70;;;11.00;75.40;;;;;;5009793;28;20460;-75
2023/12/24 12:13:45;;;;;;;0.70;0.50;;;11.00;75.20;;;;;;5011341;28;20440;-75
2023/12/24 12:16:11;;;;;;;12.73;3.70;;;11.00;74.80;;;;;;5011233;28;20184;-75
2023/12/24 12:18:37;;;;;;;1.10;0.70;;;11.10;74.90;;;;;;5011196;28;20879;-73
2023/12/24 12:21:03;;;;;;;1.13;0.67;;;11.10;74.80;;;;;;5004281;28;20480;-72
2023/12/24 12:23:28;;;;;;;1.90;0.90;;;11.20;74.30;;;;;;5011308;28;21485;-73
2023/12/24 12:25:54;;;;;;;2.83;1.53;;;11.20;74.50;;;;;;5010246;28;20212;-74
2023/12/24 12:28:19;;;;;;;1.00;0.73;;;11.30;74.00;;;;;;5007478;28;20601;-73
2023/12/24 12:30:45;;;;;;;0.93;0.70;;;11.20;74.30;;;;;;5006212;28;20281;-75
2023/12/24 12:33:14;;;;;;;1.63;0.70;;;11.30;73.90;;;;;;5011566;28;20223;-75
2023/12/24 12:35:40;;;;;;;1.93;0.90;;;11.20;73.90;;;;;;5009991;28;20440;-75
2023/12/24 12:38:05;;;;;;;0.90;0.70;;;11.20;74.50;;;;;;5011655;28;20858;-75
2023/12/24 12:40:31;;;;;;;0.87;0.60;;;11.20;74.20;;;;;;5006482;28;20686;-73
2023/12/24 12:42:57;;;;;;;1.47;0.80;;;11.20;74.20;;;;;;5011244;28;20186;-75
2023/12/24 12:45:24;;;;;;;0.87;0.70;;;11.10;74.30;;;;;;5010449;28;20273;-74
2023/12/24 12:47:49;;;;;;;1.27;0.60;;;11.20;74.50;;;;;;5010298;28;20784;-73
2023/12/24 12:50:15;;;;;;;1.10;0.70;;;11.10;74.20;;;;;;5007074;28;20464;-75
2023/12/24 12:52:41;;;;;;;1.10;0.90;;;11.10;74.60;;;;;;5011039;28;20194;-75
2023/12/24 12:55:11;;;;;;;0.80;0.70;;;11.10;74.50;;;;;;5007576;28;20587;-75